Time;durP1;ratioP1;P1;durP2;ratioP2;P2;SDS_P1;SDS_P2;PMS_P1;PMS_P2;Temp;Humidity;BMP_temperature;BMP_pressure;BME280_temperature;BME280_humidity;BME280_pressure;Samples;Min_cycle;Max_cycle;Signal;HPM_P1;HPM_P2
2023/12/05 00:01:32;;;;;;;21.25;11.40;;;;;;;6.55;64.41;99840.81;4989078;28;122855;-78
2023/12/05 00:03:59;;;;;;;20.45;11.70;;;;;;;6.57;64.23;99848.66;4978392;28;114663;-78
2023/12/05 00:06:27;;;;;;;21.50;12.23;;;;;;;6.59;64.18;99849.44;4974176;28;112749;-79
2023/12/05 00:08:55;;;;;;;19.83;11.75;;;;;;;6.61;64.37;99844.97;4992111;28;124920;-79
2023/12/05 00:11:22;;;;;;;20.65;11.80;;;;;;;6.62;64.34;99841.41;5000054;28;124858;-79
2023/12/05 00:13:49;;;;;;;22.75;12.68;;;;;;;6.63;64.66;99843.16;4977048;28;114573;-79
2023/12/05 00:16:17;;;;;;;19.88;12.43;;;;;;;6.63;64.25;99837.88;5015828;28;113319;-79
2023/12/05 00:18:49;;;;;;;21.67;13.10;;;;;;;6.66;64.28;99836.88;4984551;28;125033;-79
2023/12/05 00:21:17;;;;;;;21.38;12.05;;;;;;;6.65;64.49;99830.78;4988585;28;124204;-79
2023/12/05 00:23:44;;;;;;;22.77;13.23;;;;;;;6.66;64.67;99837.72;4979225;28;114441;-79
2023/12/05 00:26:11;;;;;;;23.70;12.82;;;;;;;6.66;64.43;99837.72;5000747;28;114282;-79
2023/12/05 00:28:38;;;;;;;22.17;13.13;;;;;;;6.67;64.48;99828.91;4979869;28;125431;-79
2023/12/05 00:31:06;;;;;;;20.60;12.40;;;;;;;6.68;64.29;99827.97;5013035;28;123693;-79
2023/12/05 00:33:33;;;;;;;19.88;12.23;;;;;;;6.68;64.67;99829.75;4996511;28;114713;-79
2023/12/05 00:36:00;;;;;;;21.83;11.98;;;;;;;6.69;64.50;99827.06;4997767;28;113929;-79
2023/12/05 00:38:27;;;;;;;22.27;12.80;;;;;;;6.70;64.38;99823.50;4998326;28;123241;-78
2023/12/05 00:40:58;;;;;;;22.17;12.98;;;;;;;6.69;64.67;99816.53;4995857;28;124485;-79
2023/12/05 00:43:26;;;;;;;21.20;12.57;;;;;;;6.70;64.65;99826.13;5007742;28;113561;-79
2023/12/05 00:45:55;;;;;;;21.27;12.70;;;;;;;6.71;64.71;99825.22;5003419;28;113311;-79
2023/12/05 00:48:22;;;;;;;19.58;12.23;;;;;;;6.72;64.45;99815.53;4975343;28;123380;-79
2023/12/05 00:50:50;;;;;;;22.40;12.40;;;;;;;6.71;64.71;99814.69;4992736;28;124371;-79
2023/12/05 00:53:17;;;;;;;22.60;12.88;;;;;;;6.73;64.70;99818.09;5023816;28;114374;-79
2023/12/05 00:55:44;;;;;;;21.63;12.98;;;;;;;6.74;64.57;99809.31;5012640;28;115290;-79
2023/12/05 00:58:11;;;;;;;21.52;12.63;;;;;;;6.75;64.61;99813.63;4977836;28;123950;-79
2023/12/05 01:00:38;;;;;;;22.35;12.30;;;;;;;6.76;64.90;99817.09;4978669;28;124671;-79
2023/12/05 01:03:06;;;;;;;20.98;12.65;;;;;;;6.74;64.52;99814.56;5022066;28;115333;-79
2023/12/05 01:05:34;;;;;;;21.38;12.45;;;;;;;6.77;64.77;99809.16;5042204;28;114015;-79
2023/12/05 01:08:01;;;;;;;22.88;12.65;;;;;;;6.79;64.78;99817.81;5001907;28;122101;-79
2023/12/05 01:10:28;;;;;;;21.67;12.73;;;;;;;6.79;64.64;99817.81;5027502;28;123181;-78
2023/12/05 01:12:56;;;;;;;23.00;12.52;;;;;;;6.80;64.71;99809.00;5031161;28;114186;-78
2023/12/05 01:15:23;;;;;;;23.23;12.88;;;;;;;6.82;64.73;99812.44;5026117;28;114942;-79
2023/12/05 01:17:51;;;;;;;23.02;12.65;;;;;;;6.82;64.67;99817.69;5051613;28;123647;-78
2023/12/05 01:20:18;;;;;;;21.50;12.40;;;;;;;6.83;64.51;99806.22;5020335;28;123731;-79
2023/12/05 01:22:45;;;;;;;20.73;12.57;;;;;;;6.83;64.89;99803.59;5007278;28;115240;-79
2023/12/05 01:25:12;;;;;;;21.13;12.98;;;;;;;6.85;64.89;99805.31;5040548;28;115100;-79
2023/12/05 01:27:40;;;;;;;21.13;12.43;;;;;;;6.86;65.08;99804.41;5016468;28;123079;-79
2023/12/05 01:30:08;;;;;;;22.92;12.93;;;;;;;6.85;64.70;99794.78;4999200;28;123264;-79
2023/12/05 01:32:35;;;;;;;23.30;13.25;;;;;;;6.83;65.07;99798.31;5014069;28;114715;-79
2023/12/05 01:35:03;;;;;;;23.23;12.95;;;;;;;6.86;65.02;99801.78;5006283;28;112360;-78
2023/12/05 01:37:30;;;;;;;20.50;12.52;;;;;;;6.87;64.72;99798.19;5015703;28;123990;-79
2023/12/05 01:39:57;;;;;;;22.55;12.43;;;;;;;6.88;65.15;99794.66;5006373;28;122369;-78
2023/12/05 01:42:24;;;;;;;19.75;12.38;;;;;;;6.89;64.87;99797.19;5014359;28;113765;-79
2023/12/05 01:44:52;;;;;;;22.13;12.68;;;;;;;6.91;65.03;99794.50;5016221;28;114022;-79
2023/12/05 01:47:19;;;;;;;20.30;12.05;;;;;;;6.91;65.18;99799.75;5033600;28;123627;-79
2023/12/05 01:49:47;;;;;;;23.70;13.20;;;;;;;6.91;65.24;99799.75;4984833;28;122448;-79
2023/12/05 01:52:16;;;;;;;22.02;12.65;;;;;;;6.92;64.97;99801.47;4995233;28;114045;-79
2023/12/05 01:54:43;;;;;;;21.65;11.95;;;;;;;6.92;65.42;99801.47;5028878;28;112509;-79
2023/12/05 01:57:11;;;;;;;22.00;12.60;;;;;;;6.93;65.04;99801.41;4996291;28;122882;-79
2023/12/05 01:59:38;;;;;;;23.05;12.95;;;;;;;6.95;65.27;99799.56;5024348;28;124505;-79
2023/12/05 02:02:06;;;;;;;20.70;12.13;;;;;;;6.96;65.04;99803.03;5021850;28;114477;-79
2023/12/05 02:04:34;;;;;;;22.77;12.75;;;;;;;6.95;65.17;99802.19;4996943;28;114552;-77
2023/12/05 02:07:02;;;;;;;22.50;12.30;;;;;;;6.96;65.34;99803.03;5008449;28;123499;-79
2023/12/05 02:09:29;;;;;;;22.60;13.05;;;;;;;6.98;65.25;99801.19;5008910;28;123564;-77
2023/12/05 02:11:56;;;;;;;23.25;13.02;;;;;;;6.99;65.49;99802.91;4995475;28;114340;-78
2023/12/05 02:14:24;;;;;;;20.58;12.27;;;;;;;6.99;65.33;99808.16;5027982;28;115071;-78
2023/12/05 02:17:03;;;;;;;21.80;12.50;;;;;;;6.99;65.42;99803.75;4991690;28;122556;-77
2023/12/05 02:19:42;;;;;;;25.38;12.95;;;;;;;6.99;65.44;99802.91;5015531;28;122092;-78
2023/12/05 02:22:34;;;;;;;19.95;11.77;;;;;;;7.00;65.48;99807.22;5009123;28;114299;-77
2023/12/05 02:25:11;;;;;;;22.13;12.23;;;;;;;6.97;65.56;99805.59;5005927;28;112622;-78
2023/12/05 02:27:41;;;;;;;20.67;12.23;;;;;;;6.98;65.32;99806.44;4992059;28;122689;-78
2023/12/05 02:30:09;;;;;;;22.77;12.70;;;;;;;6.99;65.47;99802.91;5011104;28;124635;-78
2023/12/05 02:32:37;;;;;;;22.17;12.85;;;;;;;7.00;65.70;99799.31;5004859;28;112317;-77
2023/12/05 02:35:05;;;;;;;26.25;12.88;;;;;;;7.01;65.46;99795.78;5033912;28;114154;-77
2023/12/05 02:37:57;;;;;;;22.70;13.20;;;;;;;7.02;65.66;99802.72;5009195;28;123818;-77
2023/12/05 02:40:50;;;;;;;20.58;11.75;;;;;;;7.02;65.56;99797.47;5017531;28;124525;-78
2023/12/05 02:43:31;;;;;;;21.20;12.18;;;;;;;7.04;65.33;99805.31;5017744;28;113516;-78
2023/12/05 02:45:59;;;;;;;23.52;12.30;;;;;;;7.04;65.39;99795.63;5019220;28;113363;-77
2023/12/05 02:48:37;;;;;;;23.33;12.52;;;;;;;7.06;65.40;99799.03;5001703;28;123182;-78
2023/12/05 02:51:05;;;;;;;20.75;12.13;;;;;;;7.06;65.43;99788.50;5007968;28;124465;-78
2023/12/05 02:53:32;;;;;;;21.40;11.75;;;;;;;7.09;65.53;99788.38;4985502;28;114511;-78
2023/12/05 02:56:00;;;;;;;20.25;11.75;;;;;;;7.10;65.73;99799.72;4997846;28;114399;-78
2023/12/05 02:58:28;;;;;;;20.83;12.27;;;;;;;7.13;65.46;99789.91;4990911;28;124731;-79
2023/12/05 03:00:55;;;;;;;23.65;12.80;;;;;;;7.15;65.46;99797.75;5000414;28;122426;-78
2023/12/05 03:03:23;;;;;;;23.08;12.73;;;;;;;7.16;65.61;99800.31;5004782;28;113803;-79
2023/12/05 03:05:50;;;;;;;22.10;11.90;;;;;;;7.17;65.39;99802.00;5014729;28;113246;-78
2023/12/05 03:08:17;;;;;;;22.10;12.27;;;;;;;7.18;65.49;99792.34;5006906;28;123427;-79
2023/12/05 03:10:44;;;;;;;19.65;11.77;;;;;;;7.18;65.38;99787.91;4992388;28;122044;-78
2023/12/05 03:13:25;;;;;;;21.20;12.60;;;;;;;7.20;65.50;99786.06;5007835;28;114313;-78
2023/12/05 03:15:53;;;;;;;25.15;13.20;;;;;;;7.20;65.58;99786.06;5004679;28;114218;-78
2023/12/05 03:18:20;;;;;;;22.25;12.90;;;;;;;7.19;65.38;99789.63;5001969;28;123919;-77
2023/12/05 03:20:47;;;;;;;21.17;12.68;;;;;;;7.19;65.51;99784.34;5021127;28;123387;-78
2023/12/05 03:23:18;;;;;;;21.83;12.65;;;;;;;7.18;65.56;99782.66;4985169;28;115138;-78
2023/12/05 03:25:45;;;;;;;24.58;12.88;;;;;;;7.19;65.44;99779.06;5009053;28;114351;-78
2023/12/05 03:28:12;;;;;;;23.45;12.65;;;;;;;7.19;65.92;99779.06;4981658;28;123776;-79
2023/12/05 03:30:39;;;;;;;21.83;12.57;;;;;;;7.18;65.63;99777.38;5013067;28;124571;-78
2023/12/05 03:33:07;;;;;;;22.50;13.10;;;;;;;7.19;65.54;99763.28;4980178;28;113866;-78
2023/12/05 03:35:34;;;;;;;23.55;13.00;;;;;;;7.19;65.82;99768.53;4995492;28;115304;-78
2023/12/05 03:38:01;;;;;;;22.50;12.77;;;;;;;7.21;65.59;99766.72;4996983;28;124683;-78
2023/12/05 03:40:28;;;;;;;23.10;12.98;;;;;;;7.21;65.72;99766.72;4996630;28;125600;-78
2023/12/05 03:42:55;;;;;;;22.52;12.98;;;;;;;7.21;65.65;99766.72;4997152;28;114765;-78
2023/12/05 03:45:23;;;;;;;25.73;13.95;;;;;;;7.21;66.03;99769.34;5007613;28;114472;-78
2023/12/05 03:47:50;;;;;;;24.88;13.70;;;;;;;7.20;66.14;99762.38;4997318;28;122355;-78
2023/12/05 03:50:17;;;;;;;23.80;13.85;;;;;;;7.21;65.87;99772.00;4999640;28;122925;-78
2023/12/05 03:52:44;;;;;;;24.38;13.52;;;;;;;7.20;66.06;99767.63;5020195;28;114172;-77
2023/12/05 03:55:11;;;;;;;28.67;13.50;;;;;;;7.22;66.22;99767.56;4989210;28;113975;-77
2023/12/05 03:57:39;;;;;;;23.85;13.80;;;;;;;7.21;65.78;99772.00;5007181;28;122181;-77
2023/12/05 04:00:07;;;;;;;24.95;14.20;;;;;;;7.24;66.19;99778.03;5007696;28;124739;-78
2023/12/05 04:02:37;;;;;;;26.65;14.82;;;;;;;7.24;65.90;99780.66;5028227;28;114645;-77
2023/12/05 04:05:05;;;;;;;24.92;13.85;;;;;;;7.22;65.99;99781.56;5031413;28;114531;-78
2023/12/05 04:07:32;;;;;;;29.40;16.15;;;;;;;7.23;66.31;99785.06;4992977;28;123191;-77
2023/12/05 04:09:59;;;;;;;23.15;14.02;;;;;;;7.24;66.30;99785.94;5030756;28;124678;-77
2023/12/05 04:12:27;;;;;;;26.45;14.90;;;;;;;7.23;66.38;99785.06;5006255;28;112539;-78
2023/12/05 04:14:54;;;;;;;25.45;14.70;;;;;;;7.24;65.99;99796.47;5008531;28;114013;-77
2023/12/05 04:17:21;;;;;;;26.48;14.73;;;;;;;7.26;66.28;99794.59;5014208;28;123355;-77
2023/12/05 04:19:48;;;;;;;28.20;14.43;;;;;;;7.25;66.49;99790.25;5009470;28;122608;-77
2023/12/05 04:22:16;;;;;;;27.35;15.25;;;;;;;7.26;66.45;99794.59;4985502;28;112599;-78
2023/12/05 04:24:43;;;;;;;26.67;15.50;;;;;;;7.26;66.81;99795.44;5013613;28;114120;-78
2023/12/05 04:27:10;;;;;;;28.08;14.30;;;;;;;7.28;66.31;99809.41;4981035;28;124815;-78
2023/12/05 04:29:37;;;;;;;25.08;14.32;;;;;;;7.29;66.06;99810.25;5021979;28;123559;-78
2023/12/05 04:32:04;;;;;;;25.73;14.68;;;;;;;7.31;66.53;99803.13;4994306;28;114967;-78
2023/12/05 04:34:34;;;;;;;27.00;14.98;;;;;;;7.33;66.52;99803.94;4994279;28;115461;-78
2023/12/05 04:37:01;;;;;;;31.38;16.63;;;;;;;7.34;66.63;99813.50;4988841;28;123106;-78
2023/12/05 04:39:28;;;;;;;30.05;15.75;;;;;;;7.35;66.49;99804.69;4986707;28;122992;-78
2023/12/05 04:41:55;;;;;;;28.60;15.82;;;;;;;7.37;66.61;99808.09;5011831;28;115393;-79
2023/12/05 04:44:22;;;;;;;30.60;16.10;;;;;;;7.36;66.69;99811.66;4998957;28;114424;-78
2023/12/05 04:46:50;;;;;;;30.50;16.00;;;;;;;7.37;66.36;99813.38;5005234;28;123294;-78
2023/12/05 04:49:17;;;;;;;32.72;17.05;;;;;;;7.38;66.58;99809.78;4985292;28;123649;-78
2023/12/05 04:51:44;;;;;;;31.02;16.73;;;;;;;7.38;66.78;99815.06;5027836;28;113946;-78
2023/12/05 04:54:11;;;;;;;28.08;15.15;;;;;;;7.38;66.81;99815.06;5028247;28;113889;-78
2023/12/05 04:56:38;;;;;;;30.98;16.10;;;;;;;7.37;66.55;99813.38;5000504;28;124443;-78
2023/12/05 04:59:06;;;;;;;28.27;15.10;;;;;;;7.38;66.54;99815.94;5004307;28;123419;-78
2023/12/05 05:01:33;;;;;;;31.50;16.45;;;;;;;7.39;66.50;99822.06;4992851;28;113564;-78
2023/12/05 05:04:00;;;;;;;28.17;15.25;;;;;;;7.41;66.32;99825.47;5006954;28;114105;-78
2023/12/05 05:06:30;;;;;;;28.35;15.15;;;;;;;7.43;66.65;99820.97;4996864;28;126004;-78
2023/12/05 05:08:58;;;;;;;26.40;14.77;;;;;;;7.44;66.75;99822.69;4992614;28;123460;-78
2023/12/05 05:11:25;;;;;;;26.90;14.70;;;;;;;7.46;66.68;99834.00;5010709;28;114115;-78
2023/12/05 05:13:52;;;;;;;28.38;15.13;;;;;;;7.46;66.81;99823.47;4985718;28;115125;-78
2023/12/05 05:16:24;;;;;;;26.50;14.52;;;;;;;7.47;66.65;99825.16;4988674;28;123139;-78
2023/12/05 05:18:52;;;;;;;28.25;15.13;;;;;;;7.47;66.60;99830.44;5001524;28;124274;-78
2023/12/05 05:21:19;;;;;;;27.17;14.73;;;;;;;7.47;66.78;99830.44;5013569;28;114912;-78
2023/12/05 05:23:47;;;;;;;25.77;14.00;;;;;;;7.47;66.67;99827.78;4979317;28;115119;-78
2023/12/05 05:26:14;;;;;;;26.20;13.57;;;;;;;7.48;66.68;99816.34;5020945;28;124061;-78
2023/12/05 05:28:41;;;;;;;21.75;12.63;;;;;;;7.47;66.52;99825.16;4985674;28;124788;-78
2023/12/05 05:31:08;;;;;;;25.10;12.95;;;;;;;7.47;66.48;99830.44;4992872;28;115040;-78
2023/12/05 05:33:35;;;;;;;24.08;13.20;;;;;;;7.47;66.30;99825.16;4989339;28;113894;-78
2023/12/05 05:36:04;;;;;;;25.67;13.50;;;;;;;7.46;66.43;99828.75;4994451;28;124467;-78
2023/12/05 05:38:31;;;;;;;24.60;13.05;;;;;;;7.43;66.51;99828.88;5014610;28;124826;-78
2023/12/05 05:41:08;;;;;;;22.52;12.60;;;;;;;7.42;66.45;99832.44;4985613;28;114590;-78
2023/12/05 05:43:35;;;;;;;24.60;13.13;;;;;;;7.41;66.59;99825.47;4992953;28;113626;-78
2023/12/05 05:46:03;;;;;;;20.95;12.00;;;;;;;7.41;66.48;99836.00;4980262;28;122413;-78
2023/12/05 05:48:30;;;;;;;23.92;13.05;;;;;;;7.40;66.60;99829.00;4975623;28;123198;-78
2023/12/05 05:50:57;;;;;;;21.10;12.20;;;;;;;7.40;66.47;99834.28;4976239;28;113634;-78
2023/12/05 05:53:25;;;;;;;19.92;11.10;;;;;;;7.41;66.67;99836.00;4991666;28;115160;-78
2023/12/05 05:55:52;;;;;;;21.98;13.27;;;;;;;7.41;66.66;99843.91;4992064;28;123742;-78
2023/12/05 05:58:19;;;;;;;21.17;12.40;;;;;;;7.40;66.51;99834.28;5008788;28;123766;-78
2023/12/05 06:00:46;;;;;;;19.70;11.68;;;;;;;7.40;66.53;99844.81;4993595;28;113755;-78
2023/12/05 06:03:13;;;;;;;19.05;11.20;;;;;;;7.40;66.28;99847.44;4981161;28;114766;-78
2023/12/05 06:05:40;;;;;;;20.45;11.38;;;;;;;7.39;66.27;99848.41;5011916;28;123000;-79
2023/12/05 06:08:08;;;;;;;20.67;11.57;;;;;;;7.39;66.35;99848.41;5008239;28;124723;-79
2023/12/05 06:10:35;;;;;;;22.17;11.98;;;;;;;7.39;66.44;99851.03;4990487;28;116027;-78
2023/12/05 06:13:03;;;;;;;21.98;12.35;;;;;;;7.40;66.35;99855.34;4982396;28;115687;-77
2023/12/05 06:15:30;;;;;;;22.23;12.63;;;;;;;7.40;66.17;99852.72;5011488;28;123565;-77
2023/12/05 06:17:57;;;;;;;21.95;12.73;;;;;;;7.40;66.01;99860.63;5013210;28;123781;-78
2023/12/05 06:20:25;;;;;;;23.15;12.63;;;;;;;7.39;66.50;99853.66;5003185;28;113632;-77
2023/12/05 06:22:52;;;;;;;23.52;12.50;;;;;;;7.37;66.37;99860.78;5011390;28;113476;-78
2023/12/05 06:25:19;;;;;;;21.83;12.82;;;;;;;7.34;66.08;99866.19;5029948;28;123767;-78
2023/12/05 06:27:46;;;;;;;20.13;12.18;;;;;;;7.31;66.26;99861.06;5013937;28;123455;-78
2023/12/05 06:30:14;;;;;;;21.40;12.35;;;;;;;7.28;66.06;99866.50;5014178;28;114538;-77
2023/12/05 06:32:51;;;;;;;22.70;12.85;;;;;;;7.28;66.35;99866.50;5021815;28;114705;-78
2023/12/05 06:35:18;;;;;;;21.60;12.73;;;;;;;7.26;66.36;99865.72;5000283;28;125006;-77
2023/12/05 06:37:45;;;;;;;21.25;12.10;;;;;;;7.24;65.92;99860.50;4988072;28;125131;-77
2023/12/05 06:40:13;;;;;;;21.77;12.38;;;;;;;7.22;66.28;99873.75;4992109;28;114906;-77
2023/12/05 06:42:40;;;;;;;22.35;12.75;;;;;;;7.19;66.14;99868.59;4998715;28;113307;-77
2023/12/05 06:45:09;;;;;;;23.02;12.57;;;;;;;7.19;66.13;99881.78;4998153;28;125152;-77
2023/12/05 06:47:37;;;;;;;21.23;12.57;;;;;;;7.19;66.05;99884.41;4988270;28;122804;-78
2023/12/05 06:50:10;;;;;;;22.65;13.00;;;;;;;7.18;66.24;99881.88;4982057;28;113105;-77
2023/12/05 06:52:39;;;;;;;21.70;12.95;;;;;;;7.18;66.03;99887.16;4977763;28;115016;-78
2023/12/05 06:55:08;;;;;;;24.40;12.15;;;;;;;7.17;65.88;99885.41;4991905;28;123980;-78
2023/12/05 06:57:36;;;;;;;19.77;11.93;;;;;;;7.16;66.08;99889.84;4994996;28;122706;-78
2023/12/05 07:00:04;;;;;;;24.50;12.90;;;;;;;7.15;66.14;99888.13;4999055;28;115264;-77
2023/12/05 07:02:32;;;;;;;21.40;10.93;;;;;;;7.14;66.16;99891.69;4983977;28;115784;-77
2023/12/05 07:05:04;;;;;;;20.95;10.65;;;;;;;7.13;66.32;99895.25;4979758;28;124920;-77
2023/12/05 07:07:32;;;;;;;19.42;10.40;;;;;;;7.13;66.04;99895.25;5010230;28;124149;-77
2023/12/05 07:09:59;;;;;;;20.40;10.63;;;;;;;7.14;66.24;99902.22;4985374;28;113643;-77
2023/12/05 07:12:26;;;;;;;19.08;10.60;;;;;;;7.15;66.23;99903.91;4993641;28;113694;-77
2023/12/05 07:14:54;;;;;;;23.00;10.73;;;;;;;7.14;66.07;99907.50;5001561;28;123893;-77
2023/12/05 07:17:21;;;;;;;16.83;9.10;;;;;;;7.13;66.21;99904.91;4980472;28;124895;-77
2023/12/05 07:19:48;;;;;;;13.95;7.60;;;;;;;7.13;66.16;99916.31;5013675;28;113037;-77
2023/12/05 07:22:15;;;;;;;16.75;8.52;;;;;;;7.11;66.06;99918.16;5020847;28;114083;-77
2023/12/05 07:24:43;;;;;;;18.10;9.13;;;;;;;7.08;65.94;99915.66;5008858;28;124300;-77
2023/12/05 07:27:10;;;;;;;20.67;9.65;;;;;;;7.08;65.87;99923.56;4996712;28;123259;-77
2023/12/05 07:29:37;;;;;;;21.30;9.63;;;;;;;7.07;65.90;99921.84;4970043;28;113674;-77
2023/12/05 07:32:04;;;;;;;19.38;10.05;;;;;;;7.05;66.22;99934.25;4996184;28;114633;-78
2023/12/05 07:34:32;;;;;;;20.20;10.00;;;;;;;7.05;66.05;99934.25;5013800;28;124421;-77
2023/12/05 07:37:00;;;;;;;20.08;10.10;;;;;;;7.02;65.86;99939.63;4992408;28;123523;-77
2023/12/05 07:39:27;;;;;;;19.40;9.63;;;;;;;7.03;65.82;99951.88;4994471;28;114011;-77
2023/12/05 07:41:55;;;;;;;19.55;9.80;;;;;;;7.01;65.86;99948.47;5001138;28;114182;-77
2023/12/05 07:44:22;;;;;;;19.52;9.85;;;;;;;7.00;65.82;99941.47;4995204;28;124097;-77
2023/12/05 07:46:49;;;;;;;20.48;10.02;;;;;;;6.99;65.98;99950.31;4980814;28;124844;-77
2023/12/05 07:49:16;;;;;;;19.02;9.25;;;;;;;6.96;65.83;99951.28;5017190;28;115065;-77
2023/12/05 07:51:43;;;;;;;18.40;9.45;;;;;;;6.97;65.76;99962.69;5001405;28;115726;-77
2023/12/05 07:54:11;;;;;;;19.50;9.25;;;;;;;6.95;65.77;99959.25;4988217;28;123957;-77
2023/12/05 07:56:38;;;;;;;23.88;10.02;;;;;;;6.93;65.88;99956.72;4994531;28;123691;-77
2023/12/05 07:59:05;;;;;;;19.65;9.40;;;;;;;6.92;65.87;99964.66;4981259;28;115450;-77
2023/12/05 08:01:32;;;;;;;19.13;9.00;;;;;;;6.91;65.93;99968.22;5020572;28;113935;-77
2023/12/05 08:04:01;;;;;;;19.85;9.27;;;;;;;6.92;65.83;99969.94;4977208;28;123893;-78
2023/12/05 08:06:28;;;;;;;18.92;9.07;;;;;;;6.91;65.71;99969.09;4991035;28;124849;-77
2023/12/05 08:08:56;;;;;;;19.42;8.60;;;;;;;6.91;66.07;99976.09;5010628;28;114879;-77
2023/12/05 08:11:23;;;;;;;18.23;9.15;;;;;;;6.90;65.58;99971.78;4990219;28;113671;-77
2023/12/05 08:13:50;;;;;;;17.95;8.95;;;;;;;6.88;65.82;99979.75;5001231;28;124054;-77
2023/12/05 08:16:17;;;;;;;18.85;8.90;;;;;;;6.88;65.89;99978.91;5007229;28;124006;-78
2023/12/05 08:18:45;;;;;;;18.92;9.27;;;;;;;6.87;65.60;99978.00;4989188;28;114020;-77
2023/12/05 08:21:12;;;;;;;17.50;8.98;;;;;;;6.89;65.83;99991.13;5003698;28;113230;-77
2023/12/05 08:23:39;;;;;;;22.08;9.48;;;;;;;6.89;65.88;99989.31;4971377;28;123639;-77
2023/12/05 08:26:07;;;;;;;18.67;8.68;;;;;;;6.90;65.59;99995.47;4989477;28;125849;-77
2023/12/05 08:28:34;;;;;;;19.63;9.40;;;;;;;6.89;65.53;99996.38;4994137;28;114168;-77
2023/12/05 08:31:01;;;;;;;20.25;8.90;;;;;;;6.89;65.71;100006.91;4993924;28;114109;-78
2023/12/05 08:33:29;;;;;;;17.65;8.38;;;;;;;6.88;66.05;100010.47;4992560;28;124684;-77
2023/12/05 08:35:56;;;;;;;18.42;8.93;;;;;;;6.88;65.89;100007.84;4971031;28;124554;-77
2023/12/05 08:38:24;;;;;;;18.92;8.90;;;;;;;6.91;65.67;100015.59;4992717;28;116098;-77
2023/12/05 08:40:51;;;;;;;20.33;8.85;;;;;;;6.92;65.95;100012.91;5014575;28;114916;-77
2023/12/05 08:43:18;;;;;;;22.08;8.65;;;;;;;6.91;65.46;100020.84;5016147;28;123924;-77
2023/12/05 08:45:45;;;;;;;18.35;8.48;;;;;;;6.91;65.79;100020.84;4979633;28;123303;-77
2023/12/05 08:48:12;;;;;;;21.05;9.52;;;;;;;6.90;65.64;100021.78;4991668;28;113649;-77
2023/12/05 08:50:41;;;;;;;20.15;9.10;;;;;;;6.88;65.80;100021.00;4972040;28;113580;-78
2023/12/05 08:53:08;;;;;;;19.33;8.98;;;;;;;6.89;65.83;100022.69;4994903;28;124643;-78
2023/12/05 08:55:36;;;;;;;17.92;8.45;;;;;;;6.88;65.93;100028.91;4986105;28;123349;-78
2023/12/05 08:58:03;;;;;;;19.02;9.07;;;;;;;6.87;65.52;100032.44;4985755;28;113043;-78
2023/12/05 09:00:30;;;;;;;20.42;8.57;;;;;;;6.88;65.76;100035.00;4992180;28;114447;-77
2023/12/05 09:02:59;;;;;;;18.27;8.63;;;;;;;6.88;65.78;100026.28;4970234;28;124161;-77
2023/12/05 09:05:26;;;;;;;17.70;8.77;;;;;;;6.90;65.69;100034.94;4993131;28;123548;-78
2023/12/05 09:07:53;;;;;;;21.20;8.65;;;;;;;6.91;65.79;100041.91;5011135;28;114421;-78
2023/12/05 09:10:20;;;;;;;20.27;8.98;;;;;;;6.92;65.93;100048.91;4995460;28;114034;-77
2023/12/05 09:12:48;;;;;;;19.58;8.68;;;;;;;6.95;65.63;100043.47;4978577;28;124053;-77
2023/12/05 09:15:16;;;;;;;18.90;8.48;;;;;;;6.95;65.54;100046.13;5003334;28;124076;-77
2023/12/05 09:17:44;;;;;;;19.35;9.13;;;;;;;6.97;65.53;100046.94;4976416;28;112610;-77
2023/12/05 09:20:11;;;;;;;19.83;8.80;;;;;;;6.99;65.71;100053.00;4993457;28;115454;-78
2023/12/05 09:22:39;;;;;;;19.60;8.60;;;;;;;7.00;65.59;100058.16;4990195;28;124893;-78
2023/12/05 09:25:07;;;;;;;20.55;8.73;;;;;;;7.00;65.79;100062.56;5003618;28;124201;-78
2023/12/05 09:27:34;;;;;;;19.75;8.63;;;;;;;7.00;65.53;100063.44;4973532;28;114742;-78
2023/12/05 09:30:01;;;;;;;18.20;8.18;;;;;;;7.00;65.64;100067.84;4992403;28;115802;-77
2023/12/05 09:32:28;;;;;;;21.65;8.93;;;;;;;7.01;65.69;100066.94;4994604;28;124355;-78
2023/12/05 09:34:55;;;;;;;21.65;8.95;;;;;;;7.02;65.32;100076.53;5022644;28;124076;-78
2023/12/05 09:37:23;;;;;;;22.23;8.80;;;;;;;7.02;65.73;100071.25;4993321;28;115331;-78
2023/12/05 09:39:51;;;;;;;18.83;8.82;;;;;;;7.02;65.62;100073.91;5012995;28;114198;-78
2023/12/05 09:42:19;;;;;;;18.83;7.82;;;;;;;7.03;65.52;100086.16;4991033;28;124370;-78
2023/12/05 09:44:49;;;;;;;22.60;8.93;;;;;;;7.04;65.28;100089.63;5001151;28;123391;-78
2023/12/05 09:47:20;;;;;;;19.25;8.63;;;;;;;7.01;65.59;100080.09;5018980;28;114101;-77
2023/12/05 09:49:48;;;;;;;21.75;8.45;;;;;;;7.02;65.60;100092.31;4976166;28;113666;-77
2023/12/05 09:52:16;;;;;;;19.10;8.18;;;;;;;7.04;65.96;100090.47;4975095;28;124052;-77
2023/12/05 09:54:43;;;;;;;18.08;8.43;;;;;;;7.06;65.60;100088.63;4989836;28;123497;-77
2023/12/05 09:57:13;;;;;;;21.83;8.60;;;;;;;7.08;65.49;100086.78;4973300;28;114106;-77
2023/12/05 09:59:41;;;;;;;20.42;8.95;;;;;;;7.08;65.66;100097.31;5002170;28;114514;-77
2023/12/05 10:02:08;;;;;;;21.10;8.52;;;;;;;7.07;65.48;100090.38;4981296;28;123833;-78
2023/12/05 10:04:43;;;;;;;18.67;8.70;;;;;;;7.06;65.74;100093.91;4986429;28;122358;-77
2023/12/05 10:07:12;;;;;;;19.23;8.95;;;;;;;7.05;65.41;100097.47;4989581;28;112964;-77
2023/12/05 10:09:42;;;;;;;19.45;7.88;;;;;;;7.07;65.79;100095.63;5002619;28;113488;-78
2023/12/05 10:12:11;;;;;;;24.98;9.70;;;;;;;7.07;65.65;100095.63;5005150;28;124273;-77
2023/12/05 10:14:39;;;;;;;20.60;8.90;;;;;;;7.06;65.53;100096.53;4997998;28;124455;-77
2023/12/05 10:17:09;;;;;;;18.67;8.90;;;;;;;7.06;65.44;100104.44;4971432;28;114186;-77
2023/12/05 10:19:36;;;;;;;21.73;8.25;;;;;;;7.07;65.76;100094.78;4964167;28;114341;-77
2023/12/05 10:22:04;;;;;;;19.88;8.80;;;;;;;7.09;65.77;100104.31;5006355;28;124099;-77
2023/12/05 10:24:48;;;;;;;21.13;8.30;;;;;;;7.11;65.52;100105.09;4975248;28;124309;-77
2023/12/05 10:27:16;;;;;;;17.33;8.20;;;;;;;7.15;65.70;100104.03;4973971;28;112776;-77
2023/12/05 10:29:43;;;;;;;20.80;8.75;;;;;;;7.18;65.66;100109.19;4963039;28;114118;-77
2023/12/05 10:32:12;;;;;;;21.67;8.38;;;;;;;7.22;65.63;100108.13;4976909;28;125009;-78
2023/12/05 10:34:48;;;;;;;24.75;8.95;;;;;;;7.25;65.48;100114.19;4989795;28;123751;-77
2023/12/05 10:37:26;;;;;;;20.95;8.48;;;;;;;7.26;65.68;100111.50;4988870;28;114222;-77
2023/12/05 10:39:56;;;;;;;21.50;8.40;;;;;;;7.28;65.51;100114.06;4977898;28;115004;-77
2023/12/05 10:42:28;;;;;;;18.85;7.85;;;;;;;7.30;65.58;100122.75;4996097;28;123571;-77
2023/12/05 10:44:56;;;;;;;17.40;7.40;;;;;;;7.32;65.60;100126.19;4977493;28;123309;-78
2023/12/05 10:47:26;;;;;;;18.27;7.22;;;;;;;7.34;65.53;100134.88;5002349;28;114126;-77
2023/12/05 10:49:54;;;;;;;20.85;7.95;;;;;;;7.34;65.88;100134.88;4971512;28;114773;-77
2023/12/05 10:52:22;;;;;;;17.60;7.65;;;;;;;7.35;65.83;100131.31;4990085;28;123806;-77
2023/12/05 10:54:57;;;;;;;18.55;7.72;;;;;;;7.36;65.61;100133.00;4990934;28;124537;-77
2023/12/05 10:57:33;;;;;;;18.73;8.55;;;;;;;7.36;65.49;100143.56;4990941;28;114218;-77
2023/12/05 11:00:08;;;;;;;17.77;7.63;;;;;;;7.36;65.39;100140.91;4991423;28;114377;-77
2023/12/05 11:02:36;;;;;;;15.50;8.35;;;;;;;7.35;65.40;100141.88;4985129;28;122871;-77
2023/12/05 11:05:05;;;;;;;18.60;7.55;;;;;;;7.33;65.43;100135.81;4983163;28;125366;-78
2023/12/05 11:07:32;;;;;;;13.30;6.82;;;;;;;7.31;65.42;100146.41;5001892;28;115085;-78
2023/12/05 11:09:59;;;;;;;20.30;8.35;;;;;;;7.31;65.54;100151.66;4988078;28;114645;-78
2023/12/05 11:12:28;;;;;;;17.42;7.50;;;;;;;7.30;65.37;100157.00;4988049;28;123508;-77
2023/12/05 11:14:57;;;;;;;20.90;8.60;;;;;;;7.28;65.54;100157.06;4986384;28;124346;-77
2023/12/05 11:17:30;;;;;;;19.98;8.70;;;;;;;7.27;65.60;100154.47;4987075;28;114813;-77
2023/12/05 11:20:09;;;;;;;18.65;7.43;;;;;;;7.25;65.50;100161.59;4987496;28;113022;-78
2023/12/05 11:23:02;;;;;;;21.73;8.10;;;;;;;7.21;65.41;100156.47;4980309;28;124800;-78